Time;durP1;ratioP1;P1;durP2;ratioP2;P2;SDS_P1;SDS_P2;PMS_P1;PMS_P2;Temp;Humidity;BMP_temperature;BMP_pressure;BME280_temperature;BME280_humidity;BME280_pressure;Samples;Min_cycle;Max_cycle;Signal;HPM_P1;HPM_P2
2022/03/08 00:00:46;;;;;;;10.65;7.70;;;;;;;-0.67;67.50;102339.50;5031629;28;20021;-74
2022/03/08 00:03:11;;;;;;;15.50;8.05;;;;;;;-0.71;68.20;102330.81;5032300;28;20026;-73
2022/03/08 00:05:36;;;;;;;13.63;7.78;;;;;;;-0.74;67.42;102334.91;5032439;28;20374;-75
2022/03/08 00:08:02;;;;;;;12.82;8.00;;;;;;;-0.74;68.80;102334.91;5031767;28;20023;-73
2022/03/08 00:10:28;;;;;;;11.50;7.85;;;;;;;-0.82;68.14;102329.44;5032156;28;20385;-73
2022/03/08 00:12:53;;;;;;;13.35;8.02;;;;;;;-0.87;68.76;102322.34;5032315;28;20029;-73
2022/03/08 00:15:23;;;;;;;14.13;7.53;;;;;;;-0.90;69.58;102327.31;5031438;28;20099;-73
2022/03/08 00:17:49;;;;;;;14.30;7.35;;;;;;;-0.93;69.43;102334.84;5032118;28;20047;-73
2022/03/08 00:20:15;;;;;;;15.25;8.48;;;;;;;-0.96;69.15;102331.34;5031441;28;20026;-73
2022/03/08 00:22:41;;;;;;;11.32;7.43;;;;;;;-0.99;69.75;102338.00;5032029;28;20029;-73
2022/03/08 00:25:09;;;;;;;18.13;7.70;;;;;;;-1.01;70.65;102329.38;5032410;28;20025;-73
2022/03/08 00:27:34;;;;;;;15.95;8.35;;;;;;;-1.01;70.82;102331.94;5031397;28;20035;-73
2022/03/08 00:29:59;;;;;;;11.77;7.57;;;;;;;-1.07;69.89;102318.84;5032013;28;20100;-73
2022/03/08 00:32:25;;;;;;;12.05;7.78;;;;;;;-1.07;69.34;102326.53;5031857;28;20466;-73
2022/03/08 00:34:50;;;;;;;15.50;7.72;;;;;;;-1.07;69.84;102329.09;5030985;28;20047;-73
2022/03/08 00:37:16;;;;;;;10.75;7.05;;;;;;;-1.08;69.94;102325.66;5031451;28;20456;-73
2022/03/08 00:39:42;;;;;;;13.35;7.30;;;;;;;-1.11;69.76;102322.03;5031921;28;20033;-73
2022/03/08 00:42:11;;;;;;;12.60;7.28;;;;;;;-1.13;69.83;102321.97;5031370;28;20021;-73
2022/03/08 00:44:41;;;;;;;12.75;7.75;;;;;;;-1.14;71.01;102314.25;5031916;28;20036;-73
2022/03/08 00:47:07;;;;;;;15.10;7.30;;;;;;;-1.11;69.34;102325.50;5031931;28;20031;-73
2022/03/08 00:49:33;;;;;;;12.48;7.78;;;;;;;-1.07;68.75;102322.28;5030741;28;20432;-73
2022/03/08 00:51:58;;;;;;;11.70;7.03;;;;;;;-1.08;69.23;102319.63;5031781;28;20037;-73
2022/03/08 00:54:23;;;;;;;14.52;7.22;;;;;;;-1.07;68.97;102324.84;5031517;28;20025;-73
2022/03/08 00:56:49;;;;;;;13.68;7.55;;;;;;;-1.08;69.25;102323.09;5030905;28;20037;-73
2022/03/08 00:59:14;;;;;;;10.73;7.22;;;;;;;-1.11;67.84;102319.47;5031474;28;20060;-73
2022/03/08 01:01:40;;;;;;;12.65;7.15;;;;;;;-1.07;68.74;102329.09;5031568;28;20031;-73
2022/03/08 01:04:05;;;;;;;12.77;7.00;;;;;;;-1.07;68.78;102319.72;5031030;28;20096;-73
2022/03/08 01:06:30;;;;;;;12.98;6.80;;;;;;;-1.04;68.76;102329.22;5031672;28;20095;-73
2022/03/08 01:08:56;;;;;;;14.90;7.47;;;;;;;-1.06;68.08;102320.59;5031616;28;20496;-73
2022/03/08 01:11:21;;;;;;;13.32;6.70;;;;;;;-1.07;68.57;102318.84;5030785;28;20021;-73
2022/03/08 01:13:46;;;;;;;12.00;6.47;;;;;;;-1.05;67.50;102319.78;5031315;28;20100;-73
2022/03/08 01:16:12;;;;;;;14.32;7.20;;;;;;;-1.07;67.83;102304.38;5031288;28;20032;-73
2022/03/08 01:18:37;;;;;;;12.40;6.97;;;;;;;-0.96;66.98;102318.53;5030969;28;20109;-73
2022/03/08 01:21:02;;;;;;;14.32;7.00;;;;;;;-0.95;66.88;102314.28;5031609;28;20044;-73
2022/03/08 01:23:28;;;;;;;13.57;7.20;;;;;;;-0.92;67.57;102308.44;5031456;28;20214;-73
2022/03/08 01:25:53;;;;;;;10.15;6.85;;;;;;;-0.86;66.88;102313.84;5030675;28;20053;-73
2022/03/08 01:28:19;;;;;;;10.85;6.57;;;;;;;-0.85;66.85;102310.47;5031283;28;20489;-73
2022/03/08 01:30:44;;;;;;;9.77;6.80;;;;;;;-0.90;66.24;102302.59;5030542;28;20100;-73
2022/03/08 01:33:10;;;;;;;15.07;7.07;;;;;;;-0.91;67.00;102300.84;5031223;28;20036;-73
2022/03/08 01:35:35;;;;;;;10.40;6.90;;;;;;;-0.92;66.88;102298.19;5031684;28;20056;-73
2022/03/08 01:38:00;;;;;;;11.80;7.00;;;;;;;-0.89;66.45;102295.78;5030596;28;20120;-73
2022/03/08 01:40:26;;;;;;;11.02;6.72;;;;;;;-0.90;66.59;102289.78;5031251;28;20092;-73
2022/03/08 01:42:51;;;;;;;11.55;7.30;;;;;;;-0.89;66.18;102288.09;5031075;28;20355;-73
2022/03/08 01:45:20;;;;;;;10.10;7.00;;;;;;;-0.92;66.24;102278.59;5030438;28;20031;-73
2022/03/08 01:47:45;;;;;;;12.73;6.70;;;;;;;-0.94;66.92;102275.09;5030843;28;20108;-73
2022/03/08 01:50:12;;;;;;;12.25;7.22;;;;;;;-0.97;67.00;102278.38;5034902;28;20468;-73
2022/03/08 01:52:38;;;;;;;12.60;7.30;;;;;;;-0.95;66.84;102275.88;5034356;28;20108;-73
2022/03/08 01:55:05;;;;;;;14.85;7.07;;;;;;;-0.96;66.66;102274.13;5035188;28;20021;-73
2022/03/08 01:57:30;;;;;;;10.70;6.82;;;;;;;-0.97;66.62;102277.50;5034698;28;20044;-73
2022/03/08 01:59:56;;;;;;;12.52;7.30;;;;;;;-1.01;66.09;102275.63;5034022;28;20034;-73
2022/03/08 02:02:22;;;;;;;11.63;7.25;;;;;;;-1.03;67.02;102272.09;5034474;28;20028;-73
2022/03/08 02:04:47;;;;;;;11.23;6.78;;;;;;;-1.03;66.81;102264.44;5034880;28;20037;-73
2022/03/08 02:07:13;;;;;;;11.40;6.75;;;;;;;-1.04;66.76;102260.13;5033928;28;20029;-73
2022/03/08 02:09:38;;;;;;;10.82;7.18;;;;;;;-1.03;66.62;102261.88;5039596;28;20055;-73
2022/03/08 02:12:05;;;;;;;11.50;7.05;;;;;;;-1.04;66.93;102266.13;5053978;28;20028;-73
2022/03/08 02:14:30;;;;;;;11.52;7.45;;;;;;;-1.07;66.88;102255.72;5053503;28;20083;-73
2022/03/08 02:16:55;;;;;;;10.90;6.55;;;;;;;-1.12;67.04;102246.94;5054199;28;20041;-73
2022/03/08 02:19:21;;;;;;;10.00;6.72;;;;;;;-1.10;67.04;102257.28;5054560;28;20060;-72
2022/03/08 02:21:49;;;;;;;12.05;7.20;;;;;;;-1.15;66.85;102251.91;5053502;28;20033;-73
2022/03/08 02:24:14;;;;;;;11.07;7.78;;;;;;;-1.16;67.12;102247.63;5054272;28;20108;-73
2022/03/08 02:26:40;;;;;;;11.90;7.35;;;;;;;-1.20;67.35;102254.28;5054263;28;20146;-73
2022/03/08 02:29:06;;;;;;;13.02;7.07;;;;;;;-1.22;67.44;102253.31;5053713;28;20037;-73
2022/03/08 02:31:31;;;;;;;11.98;6.97;;;;;;;-1.28;67.56;102258.13;5054040;28;20067;-73
2022/03/08 02:33:57;;;;;;;13.88;7.32;;;;;;;-1.32;68.13;102252.81;5053194;28;20637;-73
2022/03/08 02:36:22;;;;;;;13.07;7.47;;;;;;;-1.38;68.19;102250.84;5054093;28;20032;-73
2022/03/08 02:38:48;;;;;;;13.38;7.60;;;;;;;-1.46;68.69;102255.59;5054120;28;20543;-73
2022/03/08 02:41:13;;;;;;;11.50;6.88;;;;;;;-1.50;68.55;102250.28;5053180;28;20074;-73
2022/03/08 02:43:39;;;;;;;11.68;7.50;;;;;;;-1.53;68.87;102243.31;5053878;28;20369;-72
2022/03/08 02:46:04;;;;;;;11.77;7.38;;;;;;;-1.52;68.20;102241.63;5053946;28;20025;-73
2022/03/08 02:48:30;;;;;;;11.65;7.50;;;;;;;-1.57;68.69;102228.63;5053056;28;20172;-73
2022/03/08 02:50:56;;;;;;;13.25;7.30;;;;;;;-1.56;69.11;102232.06;5053919;28;20090;-73
2022/03/08 02:53:22;;;;;;;11.95;7.25;;;;;;;-1.57;69.30;102237.97;5053645;28;20067;-73
2022/03/08 02:55:47;;;;;;;11.02;7.07;;;;;;;-1.61;69.41;102228.41;5052904;28;20399;-73
2022/03/08 02:58:13;;;;;;;12.73;7.95;;;;;;;-1.67;69.17;102224.75;5053418;28;20499;-73
2022/03/08 03:00:39;;;;;;;14.88;7.95;;;;;;;-1.72;69.20;102222.78;5052886;28;20027;-73
2022/03/08 03:03:05;;;;;;;13.68;6.75;;;;;;;-1.76;69.27;102218.31;5053228;28;20108;-73
2022/03/08 03:05:31;;;;;;;10.68;7.13;;;;;;;-1.80;69.30;102216.41;5053534;28;20041;-73
2022/03/08 03:07:58;;;;;;;11.82;7.68;;;;;;;-1.84;69.78;102212.81;5053405;28;20538;-73
2022/03/08 03:10:24;;;;;;;12.63;7.50;;;;;;;-1.95;70.64;102201.19;5052777;28;20441;-72
2022/03/08 03:12:52;;;;;;;12.98;7.32;;;;;;;-1.95;70.55;102214.84;5053292;28;20024;-73
2022/03/08 03:15:18;;;;;;;10.15;7.13;;;;;;;-1.97;70.16;102205.34;5053099;28;20120;-73
2022/03/08 03:17:45;;;;;;;12.90;7.38;;;;;;;-2.02;70.79;102199.16;5052543;28;20033;-72
2022/03/08 03:20:11;;;;;;;14.55;8.00;;;;;;;-2.04;70.52;102196.50;5053427;28;20025;-73
2022/03/08 03:22:37;;;;;;;10.55;7.22;;;;;;;-2.07;70.79;102190.38;5053249;28;20029;-73
2022/03/08 03:25:04;;;;;;;11.77;7.40;;;;;;;-2.03;71.53;102189.72;5052589;28;20017;-73
2022/03/08 03:27:29;;;;;;;14.35;8.18;;;;;;;-2.05;71.42;102183.66;5052899;28;20778;-72
2022/03/08 03:29:54;;;;;;;11.80;8.02;;;;;;;-2.15;70.90;102178.09;5052946;28;20033;-72
2022/03/08 03:32:19;;;;;;;12.27;7.45;;;;;;;-2.16;72.01;102175.44;5052384;28;20025;-73
2022/03/08 03:34:46;;;;;;;14.43;7.85;;;;;;;-2.19;71.52;102176.19;5052995;28;20108;-73
2022/03/08 03:37:12;;;;;;;15.02;8.07;;;;;;;-2.24;72.29;102171.66;5052136;28;20036;-73
2022/03/08 03:39:37;;;;;;;14.30;7.68;;;;;;;-2.25;72.39;102170.78;5052774;28;20036;-72
2022/03/08 03:42:03;;;;;;;12.20;8.05;;;;;;;-2.25;72.02;102175.00;5053148;28;20458;-73
2022/03/08 03:44:29;;;;;;;11.77;7.63;;;;;;;-2.26;71.66;102173.25;5051892;28;20603;-72
2022/03/08 03:46:54;;;;;;;12.02;8.07;;;;;;;-2.28;72.69;102182.53;5052784;28;20051;-72
2022/03/08 03:49:19;;;;;;;12.10;8.15;;;;;;;-2.30;71.69;102179.88;5052333;28;20049;-73
2022/03/08 03:51:46;;;;;;;12.63;8.10;;;;;;;-2.33;72.43;102173.75;5051910;28;20079;-72
2022/03/08 03:54:12;;;;;;;14.05;7.78;;;;;;;-2.39;72.42;102175.19;5052523;28;20105;-72
2022/03/08 03:56:37;;;;;;;14.48;8.20;;;;;;;-2.39;72.68;102187.97;5052331;28;20533;-72
2022/03/08 03:59:03;;;;;;;12.38;7.78;;;;;;;-2.41;72.89;102187.00;5051722;28;20116;-73
2022/03/08 04:01:28;;;;;;;13.88;8.35;;;;;;;-2.44;73.12;102189.41;5052531;28;20032;-73
2022/03/08 04:03:53;;;;;;;12.02;8.18;;;;;;;-2.43;73.23;102185.16;5052328;28;20017;-72
2022/03/08 04:06:19;;;;;;;12.93;8.18;;;;;;;-2.44;73.08;102184.28;5051650;28;20032;-73
2022/03/08 04:08:44;;;;;;;14.32;7.82;;;;;;;-2.41;73.53;102178.47;5052281;28;20025;-73
2022/03/08 04:11:10;;;;;;;12.32;7.50;;;;;;;-2.39;72.94;102171.75;5051414;28;20499;-73
2022/03/08 04:13:35;;;;;;;12.07;7.72;;;;;;;-2.40;73.38;102172.56;5051583;28;20029;-73
2022/03/08 04:16:01;;;;;;;17.33;8.52;;;;;;;-2.39;73.48;102174.28;5052508;28;20051;-73
2022/03/08 04:18:26;;;;;;;12.05;7.32;;;;;;;-2.36;73.64;102182.13;5052130;28;20028;-73
2022/03/08 04:20:51;;;;;;;13.02;8.35;;;;;;;-2.31;73.82;102167.91;5051425;28;20373;-73
2022/03/08 04:23:17;;;;;;;14.25;8.30;;;;;;;-2.27;72.85;102177.47;5052143;28;20017;-73
2022/03/08 04:25:42;;;;;;;14.70;8.05;;;;;;;-2.28;72.56;102167.19;5051967;28;20024;-72
2022/03/08 04:28:07;;;;;;;12.90;8.02;;;;;;;-2.25;72.57;102173.34;5051360;28;20128;-72
2022/03/08 04:30:33;;;;;;;12.80;7.80;;;;;;;-2.28;72.64;102172.31;5051933;28;20403;-72
2022/03/08 04:32:58;;;;;;;18.30;7.82;;;;;;;-2.31;73.26;102170.47;5052000;28;20032;-73
2022/03/08 04:35:24;;;;;;;16.63;8.05;;;;;;;-2.33;73.19;102168.63;5051064;28;20100;-73
2022/03/08 04:37:51;;;;;;;13.35;8.05;;;;;;;-2.35;73.07;102168.56;5051715;28;20111;-72
2022/03/08 04:40:16;;;;;;;12.45;7.80;;;;;;;-2.36;73.40;102171.91;5051768;28;20082;-73
2022/03/08 04:42:43;;;;;;;13.55;8.13;;;;;;;-2.40;73.66;102164.88;5050691;28;20029;-73
2022/03/08 04:45:10;;;;;;;15.27;8.07;;;;;;;-2.39;73.01;102169.19;5052221;28;20089;-72
2022/03/08 04:47:37;;;;;;;14.70;8.55;;;;;;;-2.38;73.14;102169.28;5051090;28;20033;-73
2022/03/08 04:50:04;;;;;;;15.38;8.15;;;;;;;-2.37;73.57;102165.03;5051968;28;20138;-72
2022/03/08 04:52:29;;;;;;;16.85;8.60;;;;;;;-2.38;73.26;102166.72;5051541;28;20665;-72
2022/03/08 04:54:54;;;;;;;14.18;8.40;;;;;;;-2.38;73.23;102178.63;5050802;28;20068;-73
2022/03/08 04:57:20;;;;;;;17.23;8.70;;;;;;;-2.44;73.79;102168.97;5051356;28;20503;-72
2022/03/08 04:59:48;;;;;;;14.00;7.95;;;;;;;-2.44;73.48;102160.44;5051617;28;20095;-72
2022/03/08 05:02:13;;;;;;;13.38;8.38;;;;;;;-2.47;73.55;102165.38;5050654;28;20029;-72
2022/03/08 05:04:39;;;;;;;14.18;8.32;;;;;;;-2.51;73.69;102160.94;5051382;28;20037;-73
2022/03/08 05:07:04;;;;;;;16.67;9.48;;;;;;;-2.47;74.24;102167.94;5051863;28;20495;-75
2022/03/08 05:09:29;;;;;;;12.63;8.18;;;;;;;-2.50;73.69;102165.22;5050686;28;20124;-75
2022/03/08 05:11:55;;;;;;;13.40;8.63;;;;;;;-2.51;73.79;102166.91;5051222;28;20029;-75
2022/03/08 05:14:20;;;;;;;15.68;8.70;;;;;;;-2.55;73.97;102162.44;5051496;28;20033;-75
2022/03/08 05:16:45;;;;;;;12.20;8.80;;;;;;;-2.55;74.00;102153.88;5050787;28;20124;-75
2022/03/08 05:19:10;;;;;;;12.48;8.18;;;;;;;-2.55;74.50;102154.78;5051269;28;20037;-75
2022/03/08 05:21:36;;;;;;;13.32;8.52;;;;;;;-2.59;74.07;102153.72;5051612;28;20025;-75
2022/03/08 05:24:01;;;;;;;15.05;7.88;;;;;;;-2.59;74.65;102160.53;5054207;28;20064;-75
2022/03/08 05:26:26;;;;;;;12.85;8.45;;;;;;;-2.70;74.40;102133.56;5055165;28;20031;-75
2022/03/08 05:28:52;;;;;;;15.35;8.77;;;;;;;-2.56;75.08;102147.03;5055434;28;20511;-75
2022/03/08 05:31:17;;;;;;;14.77;8.63;;;;;;;-2.55;75.07;102143.69;5054420;28;20029;-75
2022/03/08 05:33:42;;;;;;;12.70;8.20;;;;;;;-2.53;74.34;102154.84;5054903;28;20380;-75
2022/03/08 05:36:07;;;;;;;14.27;8.50;;;;;;;-2.56;74.60;102142.81;5055201;28;20032;-75
2022/03/08 05:38:33;;;;;;;14.98;8.70;;;;;;;-2.51;74.39;102146.47;5054215;28;20068;-75
2022/03/08 05:40:59;;;;;;;14.80;8.20;;;;;;;-2.64;74.35;102124.56;5054849;28;20032;-75
2022/03/08 05:43:25;;;;;;;16.83;9.05;;;;;;;-2.54;74.42;102131.00;5055138;28;20021;-75
2022/03/08 05:45:50;;;;;;;14.05;8.65;;;;;;;-2.51;74.62;102140.50;5054242;28;20044;-75
2022/03/08 05:48:15;;;;;;;18.38;8.10;;;;;;;-2.44;74.96;102148.53;5054831;28;20535;-75
2022/03/08 05:50:41;;;;;;;15.65;8.38;;;;;;;-2.42;74.34;102149.50;5055073;28;20417;-75
2022/03/08 05:53:06;;;;;;;12.88;8.27;;;;;;;-2.40;74.19;102147.88;5054369;28;20495;-75
2022/03/08 05:55:33;;;;;;;15.57;8.85;;;;;;;-2.42;73.89;102148.59;5054608;28;20021;-75
2022/03/08 05:57:58;;;;;;;13.60;7.95;;;;;;;-2.42;74.30;102152.06;5053832;28;20461;-75
2022/03/08 06:00:23;;;;;;;19.27;9.70;;;;;;;-2.40;74.41;102150.44;5054547;28;20039;-75
2022/03/08 06:02:49;;;;;;;12.88;7.75;;;;;;;-2.39;74.42;102135.97;5054799;28;20059;-75
2022/03/08 06:05:14;;;;;;;13.32;8.15;;;;;;;-2.39;74.18;102141.09;5053722;28;20036;-75
2022/03/08 06:07:39;;;;;;;15.85;8.30;;;;;;;-2.45;74.27;102126.38;5054520;28;20074;-75
2022/03/08 06:10:08;;;;;;;15.75;8.98;;;;;;;-2.43;74.54;102134.97;5054762;28;20043;-75
2022/03/08 06:12:34;;;;;;;14.15;8.40;;;;;;;-2.41;74.30;102141.03;5053619;28;20035;-75
2022/03/08 06:14:59;;;;;;;13.07;8.15;;;;;;;-2.37;73.42;102129.28;5054602;28;20100;-75
2022/03/08 06:17:25;;;;;;;13.10;7.65;;;;;;;-2.28;73.86;102141.66;5054295;28;20041;-75
2022/03/08 06:19:50;;;;;;;15.85;8.65;;;;;;;-2.26;73.92;102135.78;5053603;28;20052;-75
2022/03/08 06:22:15;;;;;;;12.85;8.32;;;;;;;-2.21;73.34;102136.91;5054293;28;20483;-75
2022/03/08 06:24:41;;;;;;;14.30;8.57;;;;;;;-2.19;73.34;102132.75;5054104;28;20037;-75
2022/03/08 06:27:06;;;;;;;12.15;7.80;;;;;;;-2.14;73.54;102144.06;5054008;28;20029;-75
2022/03/08 06:29:31;;;;;;;17.48;9.02;;;;;;;-2.16;73.30;102145.69;5054344;28;20082;-75
2022/03/08 06:31:57;;;;;;;13.13;8.00;;;;;;;-2.16;72.97;102140.56;5054143;28;20021;-75
2022/03/08 06:34:22;;;;;;;14.23;8.70;;;;;;;-2.10;73.68;102139.09;5052457;28;20385;-75
2022/03/08 06:36:47;;;;;;;13.45;8.13;;;;;;;-2.08;73.03;102135.81;5053868;28;20021;-75
2022/03/08 06:39:13;;;;;;;14.20;9.55;;;;;;;-2.04;72.96;102126.63;5053791;28;20041;-75
2022/03/08 06:41:38;;;;;;;14.68;9.35;;;;;;;-1.96;73.01;102130.44;5053301;28;20029;-75
2022/03/08 06:44:04;;;;;;;12.90;7.85;;;;;;;-1.97;72.88;102132.09;5054297;28;20033;-75
2022/03/08 06:46:30;;;;;;;12.68;7.80;;;;;;;-1.85;72.21;102139.50;5053680;28;20036;-75
2022/03/08 06:48:55;;;;;;;14.68;7.82;;;;;;;-1.77;71.70;102135.59;5052909;28;20037;-75
2022/03/08 06:51:21;;;;;;;13.13;8.13;;;;;;;-1.77;71.90;102130.50;5053741;28;20378;-75
2022/03/08 06:53:46;;;;;;;13.80;8.85;;;;;;;-1.68;71.79;102137.72;5053639;28;20044;-75
2022/03/08 06:56:11;;;;;;;12.50;8.05;;;;;;;-1.61;71.49;102137.22;5052801;28;20170;-75
2022/03/08 06:58:37;;;;;;;12.57;8.13;;;;;;;-1.54;71.11;102130.69;5053493;28;20071;-75
2022/03/08 07:01:02;;;;;;;13.80;8.18;;;;;;;-1.48;70.66;102133.53;5054108;28;20032;-75
2022/03/08 07:03:27;;;;;;;15.00;7.80;;;;;;;-1.37;70.97;102137.50;5052820;28;20125;-75
2022/03/08 07:05:53;;;;;;;13.02;7.95;;;;;;;-1.34;70.31;102124.84;5053504;28;20056;-75
2022/03/08 07:08:18;;;;;;;13.68;8.27;;;;;;;-1.27;69.38;102124.31;5052680;28;20040;-75
2022/03/08 07:10:43;;;;;;;14.52;8.13;;;;;;;-1.15;69.10;102125.66;5053168;28;20487;-75
2022/03/08 07:13:08;;;;;;;14.95;8.68;;;;;;;-1.07;69.61;102130.31;5053536;28;20064;-75
2022/03/08 07:15:34;;;;;;;13.35;8.70;;;;;;;-1.02;69.29;102133.94;5052776;28;20028;-75
2022/03/08 07:17:59;;;;;;;14.63;8.63;;;;;;;-0.99;68.99;102133.19;5053236;28;20424;-76
2022/03/08 07:20:25;;;;;;;13.02;8.50;;;;;;;-0.92;68.69;102140.34;5053238;28;20040;-75
2022/03/08 07:22:50;;;;;;;15.20;8.15;;;;;;;-0.86;68.33;102138.06;5052378;28;20040;-75
2022/03/08 07:25:16;;;;;;;14.02;7.78;;;;;;;-0.77;67.56;102145.28;5052968;28;20037;-75
2022/03/08 07:27:42;;;;;;;15.57;8.38;;;;;;;-0.71;67.46;102140.41;5053143;28;20043;-76
2022/03/08 07:30:08;;;;;;;17.60;7.68;;;;;;;-0.64;66.58;102144.13;5052580;28;20021;-75
2022/03/08 07:32:34;;;;;;;13.05;8.18;;;;;;;-0.56;67.19;102150.44;5052767;28;20040;-75
2022/03/08 07:34:59;;;;;;;13.52;8.63;;;;;;;-0.51;66.59;102152.38;5052906;28;20025;-75
2022/03/08 07:37:25;;;;;;;13.02;8.48;;;;;;;-0.45;66.24;102149.22;5052038;28;20048;-75
2022/03/08 07:39:51;;;;;;;13.73;8.95;;;;;;;-0.36;65.51;102147.06;5052711;28;20037;-75
2022/03/08 07:42:16;;;;;;;13.93;8.45;;;;;;;-0.26;65.49;102144.06;5053000;28;20032;-75
2022/03/08 07:44:41;;;;;;;13.77;8.60;;;;;;;-0.21;65.47;102139.09;5051957;28;20112;-75
2022/03/08 07:47:08;;;;;;;11.60;8.63;;;;;;;-0.15;64.48;102126.53;5052963;28;20381;-75
2022/03/08 07:49:34;;;;;;;12.10;7.95;;;;;;;-0.05;64.51;102122.66;5052481;28;20121;-75
2022/03/08 07:51:59;;;;;;;13.07;8.68;;;;;;;0.08;63.73;102129.16;5051820;28;20100;-75
2022/03/08 07:54:24;;;;;;;13.30;8.35;;;;;;;0.18;62.44;102129.59;5052352;28;20629;-75
2022/03/08 07:56:50;;;;;;;14.23;9.20;;;;;;;0.27;62.71;102125.66;5052670;28;20029;-76
2022/03/08 07:59:15;;;;;;;13.55;7.53;;;;;;;0.36;62.02;102133.66;5051767;28;20032;-75
2022/03/08 08:01:41;;;;;;;14.73;8.20;;;;;;;0.48;61.98;102139.28;5052441;28;20032;-75
2022/03/08 08:04:06;;;;;;;13.73;8.43;;;;;;;0.60;61.43;102129.50;5052500;28;20055;-76
2022/03/08 08:06:32;;;;;;;11.63;7.60;;;;;;;0.67;61.10;102131.47;5051408;28;20060;-75
2022/03/08 08:08:57;;;;;;;12.45;7.63;;;;;;;0.76;60.11;102133.50;5052113;28;20032;-76
2022/03/08 08:11:22;;;;;;;12.18;7.55;;;;;;;0.80;58.62;102122.53;5052141;28;20092;-75
2022/03/08 08:13:51;;;;;;;16.92;7.43;;;;;;;0.95;60.22;102132.50;5051521;28;20036;-75
2022/03/08 08:16:17;;;;;;;12.32;8.00;;;;;;;1.03;59.16;102137.91;5052042;28;20017;-76
2022/03/08 08:18:43;;;;;;;10.88;7.18;;;;;;;1.09;58.76;102139.00;5051307;28;20025;-75
2022/03/08 08:21:08;;;;;;;14.15;8.10;;;;;;;1.19;59.33;102139.34;5052389;28;20025;-75
2022/03/08 08:23:34;;;;;;;12.25;8.25;;;;;;;1.31;58.25;102125.25;5051965;28;20029;-76
2022/03/08 08:25:59;;;;;;;11.07;7.75;;;;;;;1.36;57.83;102122.81;5051388;28;20025;-75
2022/03/08 08:28:24;;;;;;;11.13;7.50;;;;;;;1.48;58.41;102125.81;5052075;28;20029;-75
2022/03/08 08:30:49;;;;;;;12.25;7.63;;;;;;;1.55;58.15;102129.47;5051953;28;20056;-75
2022/03/08 08:33:15;;;;;;;11.73;7.70;;;;;;;1.59;56.80;102123.59;5051633;28;20381;-76
2022/03/08 08:35:41;;;;;;;11.80;7.80;;;;;;;1.65;58.18;102131.53;5051772;28;20021;-75
2022/03/08 08:38:06;;;;;;;13.75;7.78;;;;;;;1.78;57.41;102131.09;5051975;28;20071;-76
2022/03/08 08:40:34;;;;;;;10.65;6.88;;;;;;;1.86;56.66;102129.69;5051189;28;20029;-75
2022/03/08 08:42:59;;;;;;;10.93;6.57;;;;;;;1.96;56.32;102132.53;5051543;28;20538;-76
2022/03/08 08:45:25;;;;;;;11.82;7.70;;;;;;;2.02;55.79;102128.44;5051730;28;20025;-75
2022/03/08 08:47:50;;;;;;;9.98;6.70;;;;;;;2.07;54.99;102126.91;5050598;28;20053;-76
2022/03/08 08:50:15;;;;;;;15.02;7.70;;;;;;;2.16;55.14;102112.56;5051722;28;20040;-76
2022/03/08 08:52:41;;;;;;;10.70;7.55;;;;;;;2.29;54.65;102117.31;5051429;28;20066;-75
2022/03/08 08:55:06;;;;;;;12.65;7.45;;;;;;;2.37;54.16;102117.53;5051248;28;20506;-76
2022/03/08 08:57:33;;;;;;;14.60;7.07;;;;;;;2.44;52.80;102104.00;5051148;28;20067;-76
2022/03/08 08:59:58;;;;;;;10.85;7.28;;;;;;;2.57;52.67;102109.56;5051353;28;20481;-76
2022/03/08 09:02:23;;;;;;;10.63;7.40;;;;;;;2.64;52.38;102109.75;5050755;28;20063;-76
2022/03/08 09:04:48;;;;;;;11.52;6.85;;;;;;;2.66;52.68;102113.25;5051474;28;20480;-75
2022/03/08 09:07:14;;;;;;;11.73;6.97;;;;;;;2.80;51.83;102114.50;5051286;28;20027;-76
2022/03/08 09:09:39;;;;;;;12.00;6.75;;;;;;;2.87;52.29;102108.69;5050843;28;20472;-76
2022/03/08 09:12:05;;;;;;;14.43;7.63;;;;;;;3.02;52.01;102114.28;5051811;28;20027;-76
2022/03/08 09:14:30;;;;;;;14.68;7.28;;;;;;;3.03;51.34;102094.56;5051372;28;20036;-76
2022/03/08 09:16:55;;;;;;;20.88;7.28;;;;;;;3.17;51.83;102116.44;5050673;28;20438;-73
2022/03/08 09:19:21;;;;;;;15.52;7.28;;;;;;;3.29;50.95;102111.59;5051243;28;20037;-73
2022/03/08 09:21:46;;;;;;;13.77;7.25;;;;;;;3.37;50.00;102104.06;5050972;28;20480;-73
2022/03/08 09:24:12;;;;;;;12.85;7.30;;;;;;;3.48;50.02;102091.47;5050822;28;20052;-73
2022/03/08 09:26:37;;;;;;;10.70;7.20;;;;;;;3.59;48.89;102102.03;5051403;28;20388;-73
2022/03/08 09:29:02;;;;;;;12.07;7.28;;;;;;;3.64;49.20;102090.13;5050890;28;20032;-73
2022/03/08 09:31:28;;;;;;;12.55;7.03;;;;;;;3.72;48.94;102083.44;5051074;28;20029;-73
2022/03/08 09:33:53;;;;;;;12.73;7.00;;;;;;;3.84;48.38;102088.03;5051152;28;20017;-73
2022/03/08 09:36:18;;;;;;;11.57;6.88;;;;;;;3.96;48.62;102086.63;5050354;28;20381;-73
2022/03/08 09:38:44;;;;;;;8.50;6.00;;;;;;;4.07;47.59;102086.00;5051236;28;20025;-73
2022/03/08 09:41:11;;;;;;;11.40;6.70;;;;;;;4.14;47.45;102087.88;5051332;28;20029;-73
2022/03/08 09:43:37;;;;;;;8.10;6.25;;;;;;;4.22;46.99;102073.47;5050496;28;20029;-73
2022/03/08 09:46:04;;;;;;;11.52;7.03;;;;;;;4.30;46.17;102064.16;5051302;28;20036;-73
2022/03/08 09:48:29;;;;;;;11.05;6.43;;;;;;;4.41;45.66;102067.88;5050954;28;20053;-73
2022/03/08 09:50:59;;;;;;;13.43;6.38;;;;;;;4.47;46.15;102078.28;5050191;28;20040;-73
2022/03/08 09:53:24;;;;;;;11.85;7.03;;;;;;;4.53;46.05;102066.38;5051249;28;20112;-73
2022/03/08 09:55:50;;;;;;;14.73;6.45;;;;;;;4.59;45.44;102062.19;5051093;28;20104;-73
2022/03/08 09:58:19;;;;;;;11.55;6.70;;;;;;;4.67;45.00;102080.41;5050137;28;20098;-73
2022/03/08 10:00:44;;;;;;;9.63;6.65;;;;;;;4.74;45.21;102069.41;5051051;28;20023;-73
2022/03/08 10:03:11;;;;;;;9.23;6.50;;;;;;;4.80;44.68;102058.28;5051046;28;20100;-73
2022/03/08 10:05:40;;;;;;;12.95;7.25;;;;;;;4.87;45.07;102055.88;5050150;28;20032;-73
2022/03/08 10:08:10;;;;;;;14.18;5.93;;;;;;;4.96;44.94;102052.56;5051173;28;20491;-73
2022/03/08 10:10:50;;;;;;;9.77;5.95;;;;;;;4.99;44.97;102046.59;5053818;28;20060;-73
2022/03/08 10:13:18;;;;;;;10.75;6.65;;;;;;;5.09;44.27;102051.97;5053684;28;20503;-73
2022/03/08 10:15:44;;;;;;;10.10;6.38;;;;;;;5.14;43.99;102046.91;5054317;28;20534;-73
2022/03/08 10:18:09;;;;;;;14.80;6.70;;;;;;;5.20;44.05;102039.25;5053692;28;20025;-76
2022/03/08 10:20:35;;;;;;;11.32;6.90;;;;;;;5.27;43.65;102041.09;5054481;28;20112;-74
2022/03/08 10:23:13;;;;;;;8.98;5.78;;;;;;;5.38;44.74;102043.84;5054513;28;20033;-73
2022/03/08 10:25:38;;;;;;;9.80;6.90;;;;;;;5.51;42.91;102047.53;5053641;28;20021;-73
2022/03/08 10:28:05;;;;;;;8.38;6.18;;;;;;;5.59;42.96;102046.81;5054506;28;20079;-73
2022/03/08 10:30:43;;;;;;;9.77;6.65;;;;;;;5.68;43.05;102043.50;5054060;28;20053;-73
2022/03/08 10:33:09;;;;;;;10.88;6.70;;;;;;;5.85;43.67;102043.75;5053855;28;20028;-73
2022/03/08 10:35:39;;;;;;;9.32;6.60;;;;;;;5.94;44.15;102041.34;5054345;28;20025;-73
2022/03/08 10:38:11;;;;;;;11.48;6.78;;;;;;;6.03;42.93;102036.28;5054301;28;20029;-74
2022/03/08 10:40:39;;;;;;;9.52;6.97;;;;;;;6.17;43.44;102028.72;5053485;28;20025;-73
2022/03/08 10:43:07;;;;;;;9.90;6.53;;;;;;;6.26;42.12;102031.44;5054072;28;20055;-73
2022/03/08 10:45:36;;;;;;;7.70;6.53;;;;;;;6.33;42.00;102025.47;5053660;28;20025;-73
2022/03/08 10:48:07;;;;;;;10.13;6.30;;;;;;;6.37;41.67;102017.75;5053181;28;20076;-73
2022/03/08 10:50:35;;;;;;;10.43;6.70;;;;;;;6.41;41.62;102022.09;5053801;28;20025;-74
2022/03/08 10:53:02;;;;;;;9.50;6.65;;;;;;;6.42;42.31;102013.50;5053616;28;20060;-74
2022/03/08 10:55:30;;;;;;;12.35;6.80;;;;;;;6.52;42.46;102018.81;5052639;28;20025;-73
2022/03/08 10:58:10;;;;;;;13.07;6.72;;;;;;;6.64;41.98;102018.09;5053480;28;20060;-73
2022/03/08 11:00:37;;;;;;;8.48;5.13;;;;;;;6.76;41.14;102017.34;5053212;28;20032;-74
2022/03/08 11:03:06;;;;;;;8.70;6.38;;;;;;;6.88;41.26;102017.50;5053966;28;20029;-74
2022/03/08 11:05:40;;;;;;;15.27;6.78;;;;;;;7.02;41.69;102008.13;5053529;28;20033;-73
2022/03/08 11:08:06;;;;;;;10.15;6.30;;;;;;;7.10;40.54;102009.94;5052958;28;20077;-73
2022/03/08 11:10:33;;;;;;;9.38;6.57;;;;;;;7.08;40.04;102009.91;5053482;28;20396;-74
2022/03/08 11:12:59;;;;;;;13.40;6.88;;;;;;;7.15;39.94;102006.50;5053473;28;20029;-73